createdAt,value
2022-09-10T00:01:06.391Z,99649.63
2022-09-10T00:03:34.447Z,99651.66
2022-09-10T00:06:04.941Z,99648.94
2022-09-10T00:08:35.268Z,99653.16
2022-09-10T00:11:10.530Z,99660.31
2022-09-10T00:13:40.390Z,99646.44
2022-09-10T00:16:10.262Z,99652.56
2022-09-10T00:18:39.596Z,99654.25
2022-09-10T00:21:09.743Z,99648.06
2022-09-10T00:23:38.371Z,99644.19
2022-09-10T00:26:16.100Z,99645.38
2022-09-10T00:28:44.551Z,99654.41
2022-09-10T00:31:12.966Z,99656.91
2022-09-10T00:33:41.691Z,99662.34
2022-09-10T00:36:16.931Z,99670.59
2022-09-10T00:38:45.008Z,99670.25
2022-09-10T00:41:13.663Z,99675.44
2022-09-10T00:43:49.886Z,99671.81
2022-09-10T00:46:21.896Z,99677.84
2022-09-10T00:48:49.894Z,99684.56
2022-09-10T00:51:17.996Z,99682.81
2022-09-10T00:53:46.236Z,99683.50
2022-09-10T00:56:15.352Z,99682.09
2022-09-10T00:58:44.271Z,99682.16
2022-09-10T01:01:12.404Z,99687.72
2022-09-10T01:03:41.541Z,99691.44
2022-09-10T01:06:09.730Z,99699.50
2022-09-10T01:08:38.366Z,99704.50
2022-09-10T01:11:21.570Z,99709.03
2022-09-10T01:13:50.371Z,99714.84
2022-09-10T01:16:19.113Z,99711.81
2022-09-10T01:19:04.131Z,99718.88
2022-09-10T01:21:32.596Z,99718.59
2022-09-10T01:24:13.871Z,99722.47
2022-09-10T01:27:00.272Z,99729.03
2022-09-10T01:29:28.291Z,99738.53
2022-09-10T01:31:59.656Z,99746.78
2022-09-10T01:34:53.631Z,99757.91
2022-09-10T01:37:23.913Z,99762.63
2022-09-10T01:39:52.981Z,99759.50
2022-09-10T01:42:21.054Z,99755.16
2022-09-10T01:44:50.540Z,99762.41
2022-09-10T01:47:32.701Z,99759.22
2022-09-10T01:50:19.521Z,99757.25
2022-09-10T01:53:10.336Z,99763.66
2022-09-10T01:55:55.133Z,99762.53
2022-09-10T01:58:36.452Z,99758.97
2022-09-10T02:01:07.548Z,99770.88
2022-09-10T02:03:37.176Z,99771.94
2022-09-10T02:06:08.396Z,99773.00
2022-09-10T02:08:40.211Z,99781.84
2022-09-10T02:11:11.112Z,99784.75
2022-09-10T02:13:39.708Z,99780.88
2022-09-10T02:16:10.757Z,99791.41
2022-09-10T02:18:40.251Z,99791.91
2022-09-10T02:21:08.565Z,99786.97
2022-09-10T02:23:40.536Z,99795.28
2022-09-10T02:26:08.616Z,99798.69
2022-09-10T02:28:36.896Z,99800.91
2022-09-10T02:31:04.907Z,99810.91
2022-09-10T02:33:33.091Z,99812.75
2022-09-10T02:36:01.736Z,99819.38
2022-09-10T02:38:31.202Z,99819.22
2022-09-10T02:41:00.241Z,99828.00
2022-09-10T02:43:29.382Z,99846.41
2022-09-10T02:45:58.333Z,99844.91
2022-09-10T02:48:27.171Z,99846.22
2022-09-10T02:50:55.806Z,99850.25
2022-09-10T02:53:23.810Z,99844.63
2022-09-10T02:55:51.809Z,99850.19
2022-09-10T02:58:19.809Z,99843.94
2022-09-10T03:00:48.508Z,99850.19
2022-09-10T03:03:18.302Z,99854.88
2022-09-10T03:05:46.507Z,99858.88
2022-09-10T03:08:14.691Z,99866.91
2022-09-10T03:10:42.751Z,99870.28
2022-09-10T03:13:10.738Z,99870.94
2022-09-10T03:15:39.291Z,99881.78
2022-09-10T03:18:07.807Z,99896.16
2022-09-10T03:20:36.091Z,99900.56
2022-09-10T03:23:04.642Z,99905.16
2022-09-10T03:25:35.449Z,99918.63
2022-09-10T03:28:03.748Z,99929.94
2022-09-10T03:30:31.813Z,99935.81
2022-09-10T03:32:59.910Z,99944.28
2022-09-10T03:35:27.906Z,99945.25
2022-09-10T03:37:55.971Z,99945.91
2022-09-10T03:40:24.295Z,99959.91
2022-09-10T03:42:52.306Z,99955.97
2022-09-10T03:45:20.295Z,99959.31
2022-09-10T03:47:49.090Z,99962.13
2022-09-10T03:50:18.201Z,99974.41
2022-09-10T03:52:46.182Z,99973.63
2022-09-10T03:55:14.531Z,99976.56
2022-09-10T03:57:42.686Z,99982.03
2022-09-10T04:00:13.207Z,99990.06
2022-09-10T04:02:42.691Z,99995.47
2022-09-10T04:05:11.006Z,99996.47
2022-09-10T04:07:39.009Z,100010.00
2022-09-10T04:10:08.132Z,100004.72
2022-09-10T04:12:36.882Z,100014.84
2022-09-10T04:15:05.251Z,100015.13
2022-09-10T04:17:33.372Z,100017.16
2022-09-10T04:20:01.732Z,100008.31
2022-09-10T04:22:29.734Z,100008.63
2022-09-10T04:25:00.614Z,100014.34
2022-09-10T04:27:29.738Z,100012.06
2022-09-10T04:29:58.053Z,100019.78
2022-09-10T04:32:26.185Z,100030.75
2022-09-10T04:34:54.212Z,100029.47
2022-09-10T04:37:22.358Z,100040.72
2022-09-10T04:39:50.396Z,100041.59
2022-09-10T04:42:20.147Z,100042.03
2022-09-10T04:44:48.611Z,100035.19
2022-09-10T04:47:17.493Z,100041.19
2022-09-10T04:49:45.736Z,100045.19
2022-09-10T04:52:14.369Z,100044.78
2022-09-10T04:54:42.841Z,100049.75
2022-09-10T04:57:10.851Z,100057.31
2022-09-10T04:59:39.307Z,100056.03
2022-09-10T05:02:07.686Z,100056.31
2022-09-10T05:04:36.211Z,100056.59
2022-09-10T05:07:04.284Z,100058.00
2022-09-10T05:09:32.711Z,100068.25
2022-09-10T05:12:02.220Z,100065.97
2022-09-10T05:14:30.506Z,100064.56
2022-09-10T05:16:58.528Z,100064.13
2022-09-10T05:19:26.611Z,100074.47
2022-09-10T05:21:54.698Z,100071.91
2022-09-10T05:24:22.776Z,100075.63
2022-09-10T05:26:50.821Z,100082.03
2022-09-10T05:29:19.911Z,100091.41
2022-09-10T05:31:48.208Z,100099.78
2022-09-10T05:34:16.289Z,100091.09
2022-09-10T05:36:44.326Z,100102.03
2022-09-10T05:39:12.455Z,100107.19
2022-09-10T05:41:40.508Z,100113.56
2022-09-10T05:44:10.131Z,100112.25
2022-09-10T05:46:38.992Z,100112.66
2022-09-10T05:49:07.011Z,100101.16
2022-09-10T05:51:35.340Z,100108.28
2022-09-10T05:54:03.598Z,100102.88
2022-09-10T05:56:32.777Z,100106.84
2022-09-10T05:59:00.851Z,100113.66
2022-09-10T06:01:30.307Z,100120.47
2022-09-10T06:03:58.326Z,100125.28
2022-09-10T06:06:29.341Z,100127.69
2022-09-10T06:08:57.838Z,100123.38
2022-09-10T06:11:25.896Z,100113.00
2022-09-10T06:13:54.369Z,100107.91
2022-09-10T06:16:22.393Z,100109.84
2022-09-10T06:18:50.548Z,100112.72
2022-09-10T06:21:26.142Z,100117.63
2022-09-10T06:23:56.338Z,100111.78
2022-09-10T06:26:24.777Z,100115.72
2022-09-10T06:28:52.914Z,100118.00
2022-09-10T06:31:21.121Z,100117.94
2022-09-10T06:33:50.046Z,100128.00
2022-09-10T06:36:18.156Z,100126.44
2022-09-10T06:38:46.532Z,100131.81
2022-09-10T06:41:15.236Z,100135.53
2022-09-10T06:43:44.299Z,100125.56
2022-09-10T06:46:50.823Z,100137.47
2022-09-10T06:49:04.766Z,100128.53
2022-09-10T06:51:34.055Z,100131.22
2022-09-10T06:54:03.718Z,100134.91
2022-09-10T06:56:31.811Z,100128.06
2022-09-10T06:59:02.333Z,100132.75
2022-09-10T07:01:30.724Z,100137.69
2022-09-10T07:04:01.998Z,100145.19
2022-09-10T07:06:34.686Z,100149.59
2022-09-10T07:09:03.132Z,100151.59
2022-09-10T07:11:33.879Z,100153.53
2022-09-10T07:14:03.200Z,100160.78
2022-09-10T07:16:31.337Z,100159.06
2022-09-10T07:19:01.071Z,100155.78
2022-09-10T07:21:29.891Z,100159.00
2022-09-10T07:23:59.516Z,100155.00
2022-09-10T07:26:27.596Z,100157.94
2022-09-10T07:28:55.645Z,100160.00
2022-09-10T07:31:30.826Z,100160.78
2022-09-10T07:33:59.285Z,100155.50
2022-09-10T07:36:27.331Z,100157.56
2022-09-10T07:38:56.454Z,100170.44
2022-09-10T07:41:25.076Z,100181.22
2022-09-10T07:43:56.703Z,100168.00
2022-09-10T07:46:26.506Z,100170.84
2022-09-10T07:48:56.001Z,100187.13
2022-09-10T07:51:24.612Z,100178.19
2022-09-10T07:53:56.632Z,100175.47
2022-09-10T07:56:25.256Z,100181.38
2022-09-10T07:58:54.855Z,100182.63
2022-09-10T08:01:23.198Z,100175.78
2022-09-10T08:03:51.290Z,100170.78
2022-09-10T08:06:19.477Z,100168.34
2022-09-10T08:08:47.491Z,100170.06
2022-09-10T08:11:18.368Z,100168.97
2022-09-10T08:13:47.811Z,100185.69
2022-09-10T08:16:17.327Z,100178.38
2022-09-10T08:18:45.403Z,100190.09
2022-09-10T08:21:13.421Z,100176.75
2022-09-10T08:23:41.835Z,100185.97
2022-09-10T08:26:09.891Z,100195.75
2022-09-10T08:28:38.729Z,100202.25
2022-09-10T08:31:11.075Z,100189.63
2022-09-10T08:33:40.448Z,100194.06
2022-09-10T08:36:09.842Z,100189.53
2022-09-10T08:38:40.901Z,100196.13
2022-09-10T08:41:14.941Z,100186.84
2022-09-10T08:44:01.036Z,100192.50
2022-09-10T08:46:31.920Z,100205.97
2022-09-10T08:49:10.210Z,100199.59
2022-09-10T08:52:04.781Z,100202.41
2022-09-10T08:54:38.706Z,100210.13
2022-09-10T08:57:08.931Z,100217.34
2022-09-10T08:59:41.674Z,100225.44
2022-09-10T09:02:47.229Z,100231.44
2022-09-10T09:05:15.972Z,100221.66
2022-09-10T09:07:44.066Z,100230.81
2022-09-10T09:10:34.848Z,100233.50
2022-09-10T09:13:27.651Z,100227.41
2022-09-10T09:16:04.793Z,100234.38
2022-09-10T09:18:51.377Z,100243.31
2022-09-10T09:21:21.519Z,100247.59
2022-09-10T09:24:12.798Z,100239.66
2022-09-10T09:26:45.419Z,100240.75
2022-09-10T09:29:15.911Z,100253.72
2022-09-10T09:31:47.497Z,100254.81
2022-09-10T09:34:35.649Z,100263.75
2022-09-10T09:37:06.050Z,100264.72
2022-09-10T09:39:38.348Z,100269.41
2022-09-10T09:42:06.850Z,100275.63
2022-09-10T09:44:40.071Z,100280.31
2022-09-10T09:47:09.414Z,100283.94
2022-09-10T09:49:37.410Z,100282.09
2022-09-10T09:52:25.800Z,100283.47
2022-09-10T09:55:20.656Z,100278.34
2022-09-10T09:57:48.761Z,100286.50
2022-09-10T10:00:38.215Z,100288.63
2022-09-10T10:03:08.277Z,100294.72
2022-09-10T10:05:37.393Z,100295.44
2022-09-10T10:08:05.716Z,100288.34
2022-09-10T10:10:33.881Z,100287.63
2022-09-10T10:13:01.852Z,100298.50
2022-09-10T10:15:38.231Z,100296.91
2022-09-10T10:18:35.336Z,100292.72
2022-09-10T10:21:22.400Z,100291.38
2022-09-10T10:23:50.664Z,100297.97
2022-09-10T10:26:24.131Z,100307.25
2022-09-10T10:28:53.566Z,100311.78
2022-09-10T10:31:21.953Z,100311.78
2022-09-10T10:34:15.792Z,100306.75
2022-09-10T10:37:02.366Z,100310.44
2022-09-10T10:39:30.369Z,100313.13
2022-09-10T10:41:59.586Z,100317.75
2022-09-10T10:44:42.056Z,100321.91
2022-09-10T10:47:29.896Z,100311.28
2022-09-10T10:49:58.378Z,100316.03
2022-09-10T10:52:45.578Z,100324.22
2022-09-10T10:55:25.284Z,100333.25
2022-09-10T10:58:06.997Z,100321.63
2022-09-10T11:00:42.865Z,100332.41
2022-09-10T11:03:17.092Z,100330.69
2022-09-10T11:05:52.451Z,100327.16
2022-09-10T11:08:28.877Z,100332.53
2022-09-10T11:11:01.571Z,100333.50
2022-09-10T11:13:33.872Z,100335.44
2022-09-10T11:16:06.429Z,100341.94
2022-09-10T11:18:40.380Z,100343.00
2022-09-10T11:21:20.346Z,100349.50
2022-09-10T11:23:48.611Z,100340.66
2022-09-10T11:26:22.850Z,100343.47
2022-09-10T11:28:50.851Z,100348.84
2022-09-10T11:31:31.328Z,100350.69
2022-09-10T11:34:03.710Z,100349.72
2022-09-10T11:36:57.731Z,100349.94
2022-09-10T11:39:32.866Z,100368.75
2022-09-10T11:42:04.396Z,100369.75
2022-09-10T11:44:51.114Z,100368.66
2022-09-10T11:47:28.331Z,100370.59
2022-09-10T11:50:04.351Z,100373.41
2022-09-10T11:52:34.691Z,100381.59
2022-09-10T11:55:04.721Z,100378.91
2022-09-10T11:57:33.096Z,100381.81
2022-09-10T12:00:12.974Z,100386.22
2022-09-10T12:02:53.266Z,100386.09
2022-09-10T12:05:21.611Z,100381.69
2022-09-10T12:07:52.926Z,100384.63
2022-09-10T12:10:25.091Z,100391.22
2022-09-10T12:12:54.344Z,100396.69
2022-09-10T12:15:24.235Z,100398.75
2022-09-10T12:17:56.381Z,100399.84
2022-09-10T12:20:29.896Z,100404.66
2022-09-10T12:22:58.212Z,100400.38
2022-09-10T12:25:33.992Z,100417.47
2022-09-10T12:28:06.371Z,100419.41
2022-09-10T12:30:37.087Z,100421.34
2022-09-10T12:33:14.373Z,100420.59
2022-09-10T12:35:47.487Z,100424.47
2022-09-10T12:38:34.292Z,100426.31
2022-09-10T12:41:03.137Z,100431.81
2022-09-10T12:43:54.370Z,100436.34
2022-09-10T12:46:25.412Z,100438.25
2022-09-10T12:48:56.599Z,100437.41
2022-09-10T12:51:34.354Z,100446.44
2022-09-10T12:54:05.566Z,100436.66
2022-09-10T12:56:53.826Z,100450.09
2022-09-10T12:59:41.415Z,100455.47
2022-09-10T13:02:29.722Z,100457.50
2022-09-10T13:05:18.152Z,100457.50
2022-09-10T13:07:46.693Z,100459.09
2022-09-10T13:10:22.415Z,100463.53
2022-09-10T13:12:54.052Z,100462.69
2022-09-10T13:15:29.593Z,100464.59
2022-09-10T13:17:57.586Z,100468.25
2022-09-10T13:20:30.851Z,100470.09
2022-09-10T13:23:07.492Z,100467.50
2022-09-10T13:25:41.428Z,100476.53
2022-09-10T13:28:27.751Z,100485.69
2022-09-10T13:31:04.948Z,100482.34
2022-09-10T13:33:35.816Z,100489.69
2022-09-10T13:36:12.775Z,100483.53
2022-09-10T13:39:03.971Z,100493.56
2022-09-10T13:41:50.532Z,100492.78
2022-09-10T13:44:41.874Z,100499.13
2022-09-10T13:47:25.881Z,100518.91
2022-09-10T13:49:55.691Z,100520.75
2022-09-10T13:52:28.261Z,100521.69
2022-09-10T13:54:57.871Z,100528.16
2022-09-10T13:57:31.650Z,100532.53
2022-09-10T14:00:12.547Z,100542.13
2022-09-10T14:02:51.667Z,100558.22
2022-09-10T14:05:24.131Z,100561.78
2022-09-10T14:07:52.401Z,100559.94
2022-09-10T14:10:20.579Z,100560.72
2022-09-10T14:12:49.893Z,100565.25
2022-09-10T14:15:19.636Z,100574.03
2022-09-10T14:17:58.374Z,100573.91
2022-09-10T14:20:28.108Z,100583.50
2022-09-10T14:23:01.211Z,100592.22
2022-09-10T14:25:34.372Z,100596.50
2022-09-10T14:28:17.889Z,100591.03
2022-09-10T14:30:46.728Z,100597.16
2022-09-10T14:33:23.511Z,100598.88
2022-09-10T14:35:52.607Z,100596.75
2022-09-10T14:38:42.106Z,100610.06
2022-09-10T14:41:24.265Z,100614.16
2022-09-10T14:44:12.534Z,100619.22
2022-09-10T14:47:06.672Z,100621.69
2022-09-10T14:49:35.651Z,100631.25
2022-09-10T14:52:05.082Z,100640.75
2022-09-10T14:54:34.700Z,100633.13
2022-09-10T14:57:03.966Z,100639.34
2022-09-10T14:59:42.983Z,100645.38
2022-09-10T15:02:30.054Z,100648.47
2022-09-10T15:04:58.197Z,100651.69
2022-09-10T15:07:26.372Z,100661.19
2022-09-10T15:09:54.702Z,100666.88
2022-09-10T15:12:27.169Z,100667.06
2022-09-10T15:14:55.651Z,100666.31
2022-09-10T15:17:23.853Z,100665.88
2022-09-10T15:19:53.187Z,100676.31
2022-09-10T15:22:24.411Z,100685.75
2022-09-10T15:25:09.168Z,100678.22
2022-09-10T15:27:37.874Z,100678.03
2022-09-10T15:30:06.532Z,100688.78
2022-09-10T15:32:34.561Z,100697.59
2022-09-10T15:35:02.636Z,100690.06
2022-09-10T15:37:30.626Z,100695.97
2022-09-10T15:39:59.072Z,100689.50
2022-09-10T15:42:27.179Z,100692.72
2022-09-10T15:44:55.331Z,100687.72
2022-09-10T15:47:23.332Z,100698.16
2022-09-10T15:49:53.181Z,100707.53
2022-09-10T15:52:21.137Z,100698.13
2022-09-10T15:54:49.190Z,100700.69
2022-09-10T15:57:17.248Z,100706.94
2022-09-10T15:59:45.254Z,100717.50
2022-09-10T16:02:15.978Z,100719.22
2022-09-10T16:04:43.974Z,100727.41
2022-09-10T16:07:12.001Z,100731.38
2022-09-10T16:09:40.044Z,100733.50
2022-09-10T16:12:08.126Z,100735.63
2022-09-10T16:14:36.292Z,100740.47
2022-09-10T16:17:11.333Z,100742.59
2022-09-10T16:19:39.466Z,100753.25
2022-09-10T16:22:07.610Z,100751.19
2022-09-10T16:24:35.622Z,100761.63
2022-09-10T16:27:03.647Z,100758.34
2022-09-10T16:29:33.570Z,100760.44
2022-09-10T16:32:01.696Z,100765.97
2022-09-10T16:34:29.829Z,100762.94
2022-09-10T16:36:57.902Z,100773.47
2022-09-10T16:39:25.891Z,100776.28
2022-09-10T16:41:53.986Z,100774.44
2022-09-10T16:44:22.011Z,100790.28
2022-09-10T16:46:50.538Z,100802.44
2022-09-10T16:49:20.733Z,100798.53
2022-09-10T16:51:50.213Z,100808.34
2022-09-10T16:54:20.954Z,100815.47
2022-09-10T16:56:49.893Z,100823.22
2022-09-10T16:59:19.595Z,100823.72
2022-09-10T17:01:49.131Z,100823.75
2022-09-10T17:04:23.407Z,100831.44
2022-09-10T17:06:54.516Z,100832.72
2022-09-10T17:09:23.572Z,100826.72
2022-09-10T17:11:52.220Z,100835.16
2022-09-10T17:14:20.440Z,100846.25
2022-09-10T17:16:49.410Z,100840.94
2022-09-10T17:19:20.572Z,100847.56
2022-09-10T17:21:52.128Z,100843.81
2022-09-10T17:24:22.048Z,100845.69
2022-09-10T17:26:50.509Z,100852.91
2022-09-10T17:29:19.978Z,100849.53
2022-09-10T17:31:48.599Z,100848.91
2022-09-10T17:34:17.343Z,100844.09
2022-09-10T17:36:46.460Z,100851.06
2022-09-10T17:39:14.987Z,100844.03
2022-09-10T17:41:43.640Z,100857.16
2022-09-10T17:44:12.613Z,100857.69
2022-09-10T17:46:40.736Z,100855.56
2022-09-10T17:49:08.774Z,100849.78
2022-09-10T17:51:38.373Z,100852.84
2022-09-10T17:54:06.528Z,100847.88
2022-09-10T17:56:34.533Z,100847.59
2022-09-10T17:59:04.458Z,100849.38
2022-09-10T18:01:34.609Z,100850.28
2022-09-10T18:04:02.749Z,100839.72
2022-09-10T18:06:30.988Z,100833.91
2022-09-10T18:09:00.139Z,100838.94
2022-09-10T18:11:29.583Z,100832.41
2022-09-10T18:13:58.379Z,100847.41
2022-09-10T18:16:27.811Z,100844.38
2022-09-10T18:18:57.220Z,100856.41
2022-09-10T18:21:27.155Z,100826.44
2022-09-10T18:23:56.863Z,100834.84
2022-09-10T18:26:26.057Z,100840.25
2022-09-10T18:28:56.461Z,100832.72
2022-09-10T18:31:30.108Z,100825.31
2022-09-10T18:33:59.813Z,100853.00
2022-09-10T18:36:30.528Z,100865.28
2022-09-10T18:39:02.048Z,100858.44
2022-09-10T18:41:33.088Z,100857.75
2022-09-10T18:44:05.569Z,100875.91
2022-09-10T18:46:37.903Z,100879.03
2022-09-10T18:49:07.178Z,100869.34
2022-09-10T18:51:40.262Z,100870.25
2022-09-10T18:54:09.248Z,100878.84
2022-09-10T18:56:37.677Z,100878.28
2022-09-10T18:59:08.290Z,100870.69
2022-09-10T19:01:37.878Z,100862.25
2022-09-10T19:04:07.063Z,100881.59
2022-09-10T19:06:36.433Z,100869.94
2022-09-10T19:09:08.781Z,100883.41
2022-09-10T19:11:38.693Z,100904.56
2022-09-10T19:14:09.413Z,100897.00
2022-09-10T19:16:37.573Z,100910.72
2022-09-10T19:19:07.658Z,100916.44
2022-09-10T19:21:39.497Z,100907.44
2022-09-10T19:24:07.651Z,100899.72
2022-09-10T19:26:35.962Z,100888.88
2022-09-10T19:29:05.188Z,100870.56
2022-09-10T19:31:34.697Z,100877.41
2022-09-10T19:34:05.251Z,100866.38
2022-09-10T19:36:36.272Z,100882.44
2022-09-10T19:39:08.287Z,100883.00
2022-09-10T19:41:37.586Z,100879.53
2022-09-10T19:44:06.055Z,100868.38
2022-09-10T19:46:34.338Z,100889.97
2022-09-10T19:49:02.531Z,100883.88
2022-09-10T19:51:34.522Z,100890.13
2022-09-10T19:54:02.996Z,100893.28
2022-09-10T19:56:36.506Z,100889.41
2022-09-10T19:59:09.571Z,100878.84
2022-09-10T20:01:39.325Z,100869.69
2022-09-10T20:04:09.692Z,100883.28
2022-09-10T20:06:38.512Z,100891.69
2022-09-10T20:09:07.802Z,100907.06
2022-09-10T20:11:36.130Z,100920.03
2022-09-10T20:14:11.971Z,100919.56
2022-09-10T20:16:41.896Z,100927.81
2022-09-10T20:19:11.972Z,100891.09
2022-09-10T20:21:40.926Z,100899.38
2022-09-10T20:24:09.256Z,100905.91
2022-09-10T20:26:42.694Z,100913.78
2022-09-10T20:29:18.810Z,100923.22
2022-09-10T20:31:48.223Z,100924.09
2022-09-10T20:34:18.054Z,100917.81
2022-09-10T20:36:46.627Z,100929.50
2022-09-10T20:39:16.060Z,100927.84
2022-09-10T20:41:44.769Z,100921.28
2022-09-10T20:44:14.376Z,100926.63
2022-09-10T20:46:43.407Z,100933.84
2022-09-10T20:49:12.776Z,100929.72
2022-09-10T20:51:41.501Z,100933.44
2022-09-10T20:54:13.575Z,100937.63
2022-09-10T20:56:41.826Z,100941.19
2022-09-10T20:59:10.376Z,100941.19
2022-09-10T21:01:40.038Z,100936.34
2022-09-10T21:04:08.438Z,100940.47
2022-09-10T21:06:36.608Z,100946.63
2022-09-10T21:09:05.081Z,100942.63
2022-09-10T21:11:34.532Z,100937.78
2022-09-10T21:14:03.570Z,100932.75
2022-09-10T21:16:33.070Z,100941.31
2022-09-10T21:19:05.576Z,100943.72
2022-09-10T21:21:35.176Z,100950.72
2022-09-10T21:24:04.431Z,100961.31
2022-09-10T21:26:36.355Z,100958.88
2022-09-10T21:29:06.165Z,100961.16
2022-09-10T21:31:34.876Z,100958.97
2022-09-10T21:34:03.709Z,100956.09
2022-09-10T21:36:32.542Z,100961.69
2022-09-10T21:39:02.055Z,100977.47
2022-09-10T21:41:32.870Z,100968.03
2022-09-10T21:44:02.054Z,100979.22
2022-09-10T21:46:30.753Z,100972.38
2022-09-10T21:48:58.960Z,100976.94
2022-09-10T21:51:27.336Z,100971.88
2022-09-10T21:53:56.489Z,100973.50
2022-09-10T21:56:27.005Z,100982.94
2022-09-10T21:58:57.881Z,100979.16
2022-09-10T22:01:27.950Z,100982.59
2022-09-10T22:04:00.988Z,100974.78
2022-09-10T22:06:30.535Z,100957.69
2022-09-10T22:08:59.966Z,100959.81
2022-09-10T22:11:32.129Z,100965.53
2022-09-10T22:14:02.045Z,100964.91
2022-09-10T22:16:32.450Z,100961.22
2022-09-10T22:19:02.210Z,100965.38
2022-09-10T22:21:31.074Z,100973.00
2022-09-10T22:23:59.657Z,100967.78
2022-09-10T22:26:31.656Z,100971.75
2022-09-10T22:29:00.686Z,100965.88
2022-09-10T22:31:30.202Z,100968.41
2022-09-10T22:33:59.491Z,100963.78
2022-09-10T22:36:29.891Z,100962.56
2022-09-10T22:39:08.125Z,100973.94
2022-09-10T22:41:37.006Z,100971.97
2022-09-10T22:44:07.720Z,100978.75
2022-09-10T22:46:36.793Z,100975.31
2022-09-10T22:49:05.729Z,100975.75
2022-09-10T22:51:36.135Z,100973.88
2022-09-10T22:54:04.880Z,100975.59
2022-09-10T22:56:33.251Z,100969.88
2022-09-10T22:59:01.730Z,100975.47
2022-09-10T23:01:32.017Z,100974.44
2022-09-10T23:04:00.809Z,100962.72
2022-09-10T23:06:29.871Z,100968.16
2022-09-10T23:08:59.006Z,100962.44
2022-09-10T23:11:28.246Z,100963.81
2022-09-10T23:14:00.454Z,100959.66
2022-09-10T23:16:33.121Z,100956.19
2022-09-10T23:19:02.371Z,100960.03
2022-09-10T23:21:31.303Z,100947.69
2022-09-10T23:24:00.756Z,100953.53
2022-09-10T23:26:29.576Z,100951.03
2022-09-10T23:28:58.845Z,100951.34
2022-09-10T23:31:28.128Z,100953.00
2022-09-10T23:34:02.053Z,100943.06
2022-09-10T23:36:32.303Z,100946.34
2022-09-10T23:39:01.189Z,100951.16
2022-09-10T23:41:30.826Z,100948.59
2022-09-10T23:43:58.851Z,100941.28
2022-09-10T23:46:27.328Z,100941.34
2022-09-10T23:48:56.056Z,100938.88
2022-09-10T23:51:24.132Z,100939.25
2022-09-10T23:53:52.160Z,100937.78
2022-09-10T23:56:23.140Z,100934.63
2022-09-10T23:58:51.331Z,100936.88
